Terminal Aerodrome Forecast
Issued by NWS

Home | Current Version | Previous Version | Text Only | Print | Product List | Glossary On
Versions: 1 2 3 4 5 6 7 8 9 10 11 12 13 14 15 16
000
FTUS44 KOUN 231128
TAFLAW
TAF
KLAW 231128Z 2312/2412 16007KT 6SM BR BKN070
      TEMPO 2312/2314 3SM BR BKN025
     FM231800 19009KT P6SM SCT060
     FM240000 14007KT P6SM SCT250=

USA.gov is the U.S. government's official web portal to all federal, state and local government web resources and services.